Terminal Aerodrome Forecast
Issued by NWS

Current Version | Previous Version | Graphics & Text | Print | Product List | Glossary On
Versions: 1 2 3 4 5 6 7 8 9 10 11 12 13
000
FTPQ31 PGUM 140526
TAFTYA
TAF
PTYA 140526Z 1406/1506 11012G20KT P6SM VCSH SCT018 SCT120
     FM140900 09010KT P6SM VCSH SCT018 SCT120=

USA.gov is the U.S. government's official web portal to all federal, state and local government web resources and services.